Flight Track Log - Related Links

Times and Time Zones

All times are in EDT time to prevent confusion due to time zone crossing. See the N1727L flight status page for this flight to view local times or setup timezone preferences in your user account.

Time Position Orientation Groundspeed Altitude Reporting Facility
EDT Latitude Longitude Course Direction KTS MPH feet Rate Location/Type
Sat 11:59:40 AM 26.5211 -98.0653 22° Northeast 117 135 1,600  Level Houston Center
Sat 12:00:33 PM 26.5489 -98.0528 22° Northeast 118 136 2,000 333 Climbing Houston Center
Sat 12:00:52 PM 26.5569 -98.0464 35° Northeast 118 136 2,000 290 Level Houston Center
Sat 12:01:35 PM 26.5797 -98.0378 19° North 120 138 2,300 448 Climbing Houston Center
Sat 12:01:59 PM 26.5911 -98.0328 21° North 121 139 2,500 387 Climbing Houston Center
Sat 12:02:37 PM 26.6119 -98.0297 North 119 137 2,700 393 Climbing Houston Center
Sat 12:03:00 PM 26.6219 -98.0264 17° North 117 135 2,900 484 Climbing Houston Center
Sat 12:03:39 PM 26.6461 -98.0203 13° North 118 136 3,200 416 Climbing Houston Center
Sat 12:04:41 PM 26.6800 -98.0119 12° North 123 142 3,600 435 Climbing Houston Center
Sat 12:05:43 PM 26.7161 -98.0036 12° North 124 143 4,100 484 Climbing Houston Center
Sat 12:06:45 PM 26.7511 -97.9964 10° North 126 145 4,600 435 Climbing Houston Center
Sat 12:07:47 PM 26.7856 -97.9892 11° North 126 145 5,000 435 Climbing Houston Center
Sat 12:08:49 PM 26.8225 -97.9800 12° North 127 146 5,500 484 Climbing Houston Center
Sat 12:09:51 PM 26.8583 -97.9711 12° North 130 150 6,000 484 Climbing Houston Center
Sat 12:10:53 PM 26.8958 -97.9628 11° North 129 148 6,500 484 Climbing Houston Center
Sat 12:11:55 PM 26.9286 -97.9547 12° North 123 142 7,000 435 Climbing Houston Center
Sat 12:12:57 PM 26.9614 -97.9472 12° North 119 137 7,400 242 Climbing Houston Center
Sat 12:13:59 PM 26.9992 -97.9381 12° North 129 148 7,500 48 Climbing Houston Center
Sat 12:15:01 PM 27.0394 -97.9306 North 143 165 7,500  Level Houston Center
Sat 12:16:03 PM 27.0839 -97.9192 13° North 151 174 7,500  Level Houston Center
Sat 12:17:04 PM 27.1247 -97.9078 14° North 154 177 7,500  Level Houston Center
Sat 12:18:06 PM 27.1658 -97.9000 10° North 152 175 7,500  Level Houston Center
Sat 12:19:08 PM 27.2081 -97.8894 13° North 153 176 7,500  Level Houston Center
Sat 12:20:10 PM 27.2497 -97.8797 12° North 153 176 7,500  Level Houston Center
Sat 12:21:12 PM 27.2922 -97.8703 11° North 154 177 7,500  Level Houston Center
Sat 12:22:13 PM 27.3342 -97.8611 11° North 154 177 7,500  Level Houston Center
Sat 12:23:15 PM 27.3844 -97.8481 13° North 155 178 7,500  Level Houston Center
Sat 12:24:17 PM 27.4278 -97.8386 11° North 156 180 7,500  Level Houston Center
Sat 12:25:19 PM 27.4706 -97.8275 13° North 156 180 7,500  Level Houston Center
Sat 12:26:21 PM 27.5142 -97.8186 10° North 159 183 7,500  Level Houston Center
Sat 12:27:22 PM 27.5561 -97.8092 11° North 156 180 7,500  Level Houston Center
Sat 12:28:24 PM 27.5975 -97.7978 14° North 153 176 7,500  Level Houston Center
Sat 12:29:26 PM 27.6492 -97.7864 11° North 156 180 7,500  Level Houston Center
Sat 12:30:28 PM 27.6928 -97.7767 11° North 159 183 7,500  Level Houston Center
Sat 12:31:30 PM 27.7356 -97.7667 12° North 157 181 7,500  Level Houston Center
Sat 12:32:31 PM 27.7789 -97.7569 11° North 159 183 7,500  Level Houston Center
Sat 12:33:33 PM 27.8211 -97.7458 13° North 156 180 7,500  Level Houston Center
Sat 12:34:35 PM 27.8647 -97.7358 11° North 158 182 7,500  Level Houston Center
Sat 12:35:37 PM 27.9086 -97.7261 11° North 160 184 7,500  Level Houston Center
Sat 12:36:38 PM 27.9556 -97.7142 13° North 161 185 7,500  Level Houston Center
Sat 12:37:40 PM 27.9981 -97.7039 12° North 158 182 7,500  Level Houston Center
Sat 12:38:42 PM 28.0494 -97.6917 12° North 157 181 7,500  Level Houston Center
Sat 12:39:43 PM 28.0947 -97.6819 11° North 162 186 7,500 49 Level Houston Center
Sat 12:40:45 PM 28.1378 -97.6725 11° North 159 183 7,600 242 Climbing Houston Center
Sat 12:41:47 PM 28.1767 -97.6625 13° North 149 171 8,000 439 Climbing Houston Center
Sat 12:42:48 PM 28.2122 -97.6553 10° North 136 157 8,500 488 Climbing Houston Center
Sat 12:43:50 PM 28.2447 -97.6456 15° North 126 145 9,000 435 Climbing Houston Center
Sat 12:44:52 PM 28.2786 -97.6372 12° North 125 144 9,400 244 Climbing Houston Center
Sat 12:45:53 PM 28.3225 -97.6269 12° North 131 151 9,500 49 Climbing Houston Center
Sat 12:46:55 PM 28.3656 -97.6167 12° North 150 173 9,500  Level Houston Center
Sat 12:47:57 PM 28.4092 -97.6064 12° North 158 182 9,500  Level Houston Center
Sat 12:48:59 PM 28.4522 -97.5967 11° North 157 181 9,500  Level Houston Center
Sat 12:50:00 PM 28.4972 -97.5861 12° North 162 186 9,500  Level Houston Center
Sat 12:51:02 PM 28.5422 -97.5742 13° North 165 190 9,500  Level Houston Center
Sat 12:52:04 PM 28.5872 -97.5667 North 163 188 9,500  Level Houston Center
Sat 12:53:06 PM 28.6389 -97.5528 13° North 160 184 9,500  Level Houston Center
Sat 12:54:07 PM 28.6817 -97.5422 12° North 159 183 9,500  Level Houston Center
Sat 12:55:09 PM 28.7253 -97.5322 11° North 158 182 9,500  Level Houston Center
Sat 12:56:11 PM 28.7692 -97.5211 13° North 160 184 9,500  Level Houston Center
Sat 12:57:12 PM 28.8119 -97.5103 13° North 159 183 9,500  Level Houston Center
Sat 12:58:14 PM 28.8558 -97.5000 12° North 159 183 9,500  Level Houston Center
Sat 12:59:16 PM 28.8997 -97.4906 11° North 161 185 9,500  Level Houston Center
Sat 01:00:18 PM 28.9422 -97.4814 11° North 158 182 9,500  Level Houston Center
Sat 01:01:19 PM 28.9958 -97.4683 12° North 161 185 9,500  Level Houston Center
Sat 01:02:21 PM 29.0389 -97.4581 12° North 159 183 9,500  Level Houston Center
Sat 01:03:22 PM 29.0822 -97.4475 12° North 159 183 9,500  Level Houston Center
Sat 01:04:24 PM 29.1253 -97.4367 12° North 158 182 9,500  Level Houston Center
Sat 01:05:26 PM 29.1697 -97.4267 11° North 160 184 9,500  Level Houston Center
Sat 01:06:27 PM 29.2142 -97.4153 13° North 162 186 9,500  Level Houston Center
Sat 01:07:29 PM 29.2583 -97.4053 11° North 161 185 9,500  Level Houston Center
Sat 01:08:30 PM 29.3017 -97.3939 13° North 161 185 9,500  Level Houston Center
Sat 01:09:32 PM 29.3550 -97.3814 12° North 162 186 9,500  Level Houston Center
Sat 01:10:33 PM 29.3994 -97.3703 12° North 162 186 9,500 -49 Level Houston Center
Sat 01:11:35 PM 29.4447 -97.3603 11° North 163 188 9,400 -48 Descending Houston Center
Sat 01:12:37 PM 29.4892 -97.3481 13° North 164 189 9,400  Level Houston Center
Sat 01:13:38 PM 29.5342 -97.3369 12° North 164 189 9,400  Level Houston Center
Sat 01:14:40 PM 29.5783 -97.3278 10° North 162 186 9,400  Level Houston Center
Sat 01:15:42 PM 29.6231 -97.3172 12° North 163 188 9,400  Level Houston Center
Sat 01:16:43 PM 29.6683 -97.3053 13° North 165 190 9,400  Level Houston Center
Sat 01:17:45 PM 29.7211 -97.2928 12° North 162 186 9,400  Level Houston Center
Sat 01:18:46 PM 29.7644 -97.2817 13° North 160 184 9,400  Level Houston Center
Sat 01:19:48 PM 29.8100 -97.2700 13° North 165 190 9,400  Level Houston Center
Sat 01:20:50 PM 29.8547 -97.2597 11° North 165 190 9,400  Level Houston Center
Sat 01:21:51 PM 29.8989 -97.2489 12° North 162 186 9,400  Level Houston Center
Sat 01:22:53 PM 29.9436 -97.2375 12° North 164 189 9,400  Level Houston Center
Sat 01:23:55 PM 29.9883 -97.2264 12° North 165 190 9,400  Level Houston Center
Sat 01:24:56 PM 30.0311 -97.2161 12° North 160 184 9,400  Level Houston Center
Sat 01:25:58 PM 30.0844 -97.2039 11° North 162 186 9,400 48 Level Houston Center
Sat 01:27:00 PM 30.1236 -97.1942 12° North 162 186 9,500 49 Climbing Houston Center
Sat 01:28:01 PM 30.1672 -97.1836 12° North 159 183 9,500  Level Houston Center
Sat 01:29:03 PM 30.2203 -97.1700 12° North 164 189 9,500  Level Houston Center
Sat 01:30:04 PM 30.2644 -97.1592 12° North 163 188 9,500  Level Houston Center
Sat 01:31:06 PM 30.3083 -97.1481 12° North 161 185 9,500  Level Houston Center
Sat 01:32:08 PM 30.3522 -97.1378 11° North 159 183 9,500  Level Houston Center
Sat 01:33:09 PM 30.3972 -97.1258 13° North 163 188 9,500  Level Houston Center
Sat 01:34:11 PM 30.4425 -97.1150 12° North 165 190 9,500  Level Houston Center
Sat 01:35:12 PM 30.4867 -97.1039 12° North 162 186 9,500  Level Houston Center
Sat 01:36:14 PM 30.5317 -97.0928 12° North 162 186 9,500  Level Houston Center
Sat 01:37:15 PM 30.5758 -97.0814 13° North 162 186 9,500  Level Houston Center
Sat 01:38:17 PM 30.6206 -97.0700 12° North 162 186 9,500  Level Houston Center
Sat 01:39:19 PM 30.6725 -97.0572 12° North 163 188 9,500  Level Houston Center
Sat 01:41:22 PM 30.7600 -97.0358 12° North 158 182 9,500  Level Houston Center
Sat 01:42:23 PM 30.8047 -97.0239 13° North 163 188 9,500  Level Houston Center
Sat 01:43:25 PM 30.8492 -97.0272 356° North 159 183 9,500  Level Houston Center
Sat 01:44:26 PM 30.8925 -97.0242 North 157 181 9,500  Level Houston Center
Sat 01:45:28 PM 30.9372 -97.0133 12° North 162 186 9,500  Level Houston Center
Sat 01:46:29 PM 30.9825 -97.0011 13° North 166 191 9,500  Level Houston Center
Sat 01:47:31 PM 31.0350 -96.9869 13° North 165 190 9,500  Level Houston Center
Sat 01:48:32 PM 31.0794 -96.9767 11° North 162 186 9,500  Level Houston Center
Sat 01:49:34 PM 31.1244 -96.9644 13° North 164 189 9,500  Level Houston Center
Sat 01:50:35 PM 31.1694 -96.9525 13° North 164 189 9,500  Level Houston Center
Sat 01:51:37 PM 31.2133 -96.9422 11° North 160 184 9,500  Level Houston Center
Sat 01:52:39 PM 31.2586 -96.9300 13° North 164 189 9,500  Level Houston Center
Sat 01:53:40 PM 31.3028 -96.9178 13° North 162 186 9,500  Level Houston Center
Sat 01:54:42 PM 31.3472 -96.9056 13° North 161 185 9,500  Level Houston Center
Sat 01:55:43 PM 31.3908 -96.8950 12° North 160 184 9,500  Level Houston Center
Sat 01:56:45 PM 31.4353 -96.8831 13° North 161 185 9,500  Level Houston Center
Sat 01:57:46 PM 31.4803 -96.8711 13° North 163 188 9,500  Level Houston Center
Sat 01:58:48 PM 31.5311 -96.8517 18° North 164 189 9,500  Level Houston Center
Sat 01:59:49 PM 31.5750 -96.8331 20° North 164 189 9,500  Level Houston Center
Sat 02:00:51 PM 31.6186 -96.8158 19° North 165 190 9,500  Level Houston Center
Sat 02:03:18 PM 31.7231 -96.7733 19° North 164 189 9,500  Level Fort Worth Center
Sat 02:04:18 PM 31.7628 -96.7586 17° North 164 189 9,500  Level Fort Worth Center
Sat 02:05:18 PM 31.8106 -96.7361 22° Northeast 164 189 9,500  Level Fort Worth Center
Sat 02:06:18 PM 31.8481 -96.7164 24° Northeast 164 189 9,500 -100 Level Fort Worth Center
Sat 02:07:18 PM 31.8919 -96.7061 11° North 169 194 9,300 -350 Descending Fort Worth Center
Sat 02:08:18 PM 31.9461 -96.6936 11° North 180 207 8,800 -400 Descending Fort Worth Center
Sat 02:09:18 PM 31.9878 -96.6908 North 175 201 8,500 -350 Descending Fort Worth Center
Sat 02:10:18 PM 32.0336 -96.6781 13° North 175 201 8,100 -450 Descending Fort Worth Center
Sat 02:11:18 PM 32.0839 -96.6681 10° North 175 201 7,600 -500 Descending Fort Worth Center
Sat 02:12:18 PM 32.1339 -96.6578 10° North 180 207 7,100 -500 Descending Fort Worth Center
Sat 02:13:18 PM 32.1819 -96.6500 North 180 207 6,600 -600 Descending Fort Worth Center
Sat 02:14:18 PM 32.2381 -96.6347 13° North 180 207 5,900 -600 Descending Fort Worth Center
Sat 02:15:18 PM 32.2819 -96.6269 North 180 207 5,400 -550 Descending Fort Worth Center
Sat 02:16:18 PM 32.3297 -96.6167 10° North 180 207 4,800 -550 Descending Fort Worth Center
Sat 02:17:18 PM 32.3736 -96.6092 North 180 207 4,300 -600 Descending Fort Worth Center
Sat 02:18:18 PM 32.4236 -96.5989 10° North 175 201 3,600 -650 Descending Fort Worth Center
Sat 02:19:18 PM 32.4717 -96.5908 North 175 201 3,000 -550 Descending Fort Worth Center
Sat 02:20:18 PM 32.5175 -96.5806 11° North 170 196 2,500 -500 Descending Fort Worth Center

Login

Don't have an account? Register now (free) for customized features, flight alerts, and more!